Marham, United Kingdom
Current Conditions -  °F | °C
As of 11:50 AM on Monday 26 Jan 2015 (Local Time) from EGYM Reporting Station
Broken Clouds Broken Clouds  
Wind Chill: 39°   Ceiling: 20000
Heat Index: 46°   Visibility: 6mi
Dew Point: 37°   Wind: 18mph
Humidity: 71%   Direction: 290°WNW
Pressure: 30.15"   Gusts: NA
Location:  52.66°N, 0.52°E
Report Text: EGYM 261150Z 29016KT 9999 FEW025 BKN200 08/03 Q1021 BLU NOSIG
Loading
Personal Weather Stations






























Interactive Weather Map New forecast layout! Learn more

10-Day Weather Forecast

Advertisements
Track Severe Weather on mobile